createdAt,value
2022-11-06T00:01:00.497Z,3.85
2022-11-06T00:03:30.845Z,3.88
2022-11-06T00:06:19.868Z,4.13
2022-11-06T00:08:49.922Z,4.22
2022-11-06T00:11:20.156Z,3.65
2022-11-06T00:13:50.654Z,4.53
2022-11-06T00:16:21.636Z,4.20
2022-11-06T00:18:52.324Z,3.63
2022-11-06T00:21:25.362Z,4.05
2022-11-06T00:23:56.173Z,4.50
2022-11-06T00:26:28.292Z,4.20
2022-11-06T00:28:58.653Z,4.13
2022-11-06T00:31:30.685Z,4.07
2022-11-06T00:34:02.259Z,3.95
2022-11-06T00:36:33.616Z,4.03
2022-11-06T00:39:03.864Z,3.70
2022-11-06T00:41:33.864Z,4.30
2022-11-06T00:44:04.230Z,3.80
2022-11-06T00:46:35.154Z,3.70
2022-11-06T00:49:05.724Z,4.07
2022-11-06T00:51:37.427Z,3.95
2022-11-06T00:54:10.665Z,4.20
2022-11-06T00:56:41.692Z,4.00
2022-11-06T00:59:13.614Z,4.70
2022-11-06T01:01:45.507Z,3.97
2022-11-06T01:04:21.586Z,4.22
2022-11-06T01:06:54.270Z,4.03
2022-11-06T01:09:25.671Z,4.13
2022-11-06T01:12:14.150Z,3.72
2022-11-06T01:14:45.152Z,3.80
2022-11-06T01:17:15.535Z,4.85
2022-11-06T01:19:45.707Z,3.92
2022-11-06T01:22:15.677Z,3.67
2022-11-06T01:24:45.686Z,3.85
2022-11-06T01:27:31.335Z,4.05
2022-11-06T01:30:01.912Z,3.50
2022-11-06T01:32:32.478Z,3.92
2022-11-06T01:35:03.170Z,4.00
2022-11-06T01:37:34.003Z,4.03
2022-11-06T01:40:04.543Z,3.72
2022-11-06T01:42:34.443Z,3.88
2022-11-06T01:45:28.313Z,3.50
2022-11-06T01:47:58.307Z,3.65
2022-11-06T01:50:28.387Z,3.60
2022-11-06T01:53:01.923Z,3.88
2022-11-06T01:58:03.529Z,3.83
2022-11-06T02:00:39.214Z,4.07
2022-11-06T02:03:09.210Z,4.13
2022-11-06T02:05:39.202Z,4.18
2022-11-06T02:08:10.814Z,3.90
2022-11-06T02:10:41.674Z,3.80
2022-11-06T02:13:47.926Z,3.90
2022-11-06T02:16:31.613Z,4.00
2022-11-06T02:22:06.613Z,4.03
2022-11-06T02:24:58.509Z,3.80
2022-11-06T02:27:29.530Z,3.92
2022-11-06T02:30:07.889Z,3.55
2022-11-06T02:32:52.308Z,3.50
2022-11-06T02:35:32.481Z,3.85
2022-11-06T02:38:13.962Z,4.07
2022-11-06T02:40:58.842Z,4.05
2022-11-06T02:43:32.955Z,3.78
2022-11-06T02:46:08.559Z,3.85
2022-11-06T02:48:44.295Z,3.50
2022-11-06T02:51:15.680Z,3.85
2022-11-06T02:53:46.070Z,3.60
2022-11-06T02:56:20.659Z,3.97
2022-11-06T02:59:27.170Z,4.15
2022-11-06T03:02:02.356Z,3.70
2022-11-06T03:04:40.440Z,4.00
2022-11-06T03:07:25.338Z,3.75
2022-11-06T03:09:55.285Z,3.58
2022-11-06T03:12:34.110Z,3.78
2022-11-06T03:15:22.585Z,3.50
2022-11-06T03:18:01.324Z,3.42
2022-11-06T03:20:51.359Z,3.70
2022-11-06T03:23:30.504Z,3.83
2022-11-06T03:26:09.704Z,3.83
2022-11-06T03:28:59.011Z,3.55
2022-11-06T03:31:35.035Z,3.67
2022-11-06T03:34:10.590Z,3.33
2022-11-06T03:36:44.318Z,3.50
2022-11-06T03:39:20.070Z,3.63
2022-11-06T03:42:06.678Z,3.53
2022-11-06T03:44:41.093Z,3.55
2022-11-06T03:47:34.957Z,3.75
2022-11-06T03:50:27.299Z,3.53
2022-11-06T03:53:01.493Z,3.50
2022-11-06T03:55:59.069Z,3.75
2022-11-06T03:58:34.423Z,3.35
2022-11-06T04:01:05.312Z,3.13
2022-11-06T04:03:59.950Z,3.10
2022-11-06T04:06:39.118Z,3.58
2022-11-06T04:09:28.325Z,3.35
2022-11-06T04:12:17.481Z,3.22
2022-11-06T04:14:49.108Z,3.60
2022-11-06T04:17:19.248Z,3.15
2022-11-06T04:19:51.659Z,3.75
2022-11-06T04:22:33.754Z,3.50
2022-11-06T04:25:31.036Z,3.17
2022-11-06T04:28:47.177Z,3.20
2022-11-06T04:31:29.370Z,3.50
2022-11-06T04:34:14.246Z,3.40
2022-11-06T04:37:28.901Z,3.20
2022-11-06T04:40:07.414Z,3.42
2022-11-06T04:42:59.375Z,3.17
2022-11-06T04:45:47.505Z,3.10
2022-11-06T04:48:17.486Z,3.20
2022-11-06T04:50:50.123Z,3.50
2022-11-06T04:53:20.211Z,3.30
2022-11-06T04:55:54.639Z,3.35
2022-11-06T04:58:24.621Z,3.42
2022-11-06T05:00:54.818Z,3.38
2022-11-06T05:03:24.810Z,3.28
2022-11-06T05:05:54.889Z,3.58
2022-11-06T05:08:24.850Z,3.22
2022-11-06T05:10:54.810Z,3.63
2022-11-06T05:13:24.835Z,3.40
2022-11-06T05:16:01.178Z,2.85
2022-11-06T05:18:31.149Z,3.80
2022-11-06T05:21:23.022Z,2.70
2022-11-06T05:23:52.963Z,3.28
2022-11-06T05:26:22.918Z,3.25
2022-11-06T05:28:52.817Z,3.22
2022-11-06T05:31:22.868Z,3.17
2022-11-06T05:33:52.829Z,3.47
2022-11-06T05:36:22.844Z,3.45
2022-11-06T05:38:52.879Z,3.47
2022-11-06T05:41:22.956Z,3.22
2022-11-06T05:43:52.895Z,3.17
2022-11-06T05:46:47.025Z,3.20
2022-11-06T05:49:12.982Z,3.88
2022-11-06T05:51:42.978Z,3.53
2022-11-06T05:54:12.884Z,3.20
2022-11-06T05:56:42.828Z,3.88
2022-11-06T05:59:12.922Z,3.38
2022-11-06T06:01:42.935Z,3.05
2022-11-06T06:04:13.010Z,3.53
2022-11-06T06:06:42.993Z,3.25
2022-11-06T06:09:13.120Z,3.22
2022-11-06T06:11:43.154Z,3.60
2022-11-06T06:14:13.115Z,3.03
2022-11-06T06:16:43.149Z,3.10
2022-11-06T06:19:13.239Z,3.38
2022-11-06T06:21:43.206Z,3.30
2022-11-06T06:24:13.167Z,3.17
2022-11-06T06:26:43.174Z,2.85
2022-11-06T06:29:13.096Z,3.40
2022-11-06T06:31:43.092Z,2.97
2022-11-06T06:34:12.999Z,3.25
2022-11-06T06:36:42.915Z,3.35
2022-11-06T06:39:12.894Z,3.58
2022-11-06T06:41:42.815Z,3.25
2022-11-06T06:44:12.787Z,3.20
2022-11-06T06:46:44.842Z,3.53
2022-11-06T06:49:14.815Z,3.33
2022-11-06T06:51:44.789Z,3.22
2022-11-06T06:54:14.757Z,3.13
2022-11-06T06:56:44.774Z,3.13
2022-11-06T06:59:15.121Z,3.25
2022-11-06T07:01:45.165Z,3.20
2022-11-06T07:04:15.216Z,3.38
2022-11-06T07:06:45.658Z,3.38
2022-11-06T07:09:15.621Z,3.35
2022-11-06T07:11:45.576Z,3.13
2022-11-06T07:14:15.693Z,3.40
2022-11-06T07:16:48.566Z,3.45
2022-11-06T07:19:22.909Z,3.10
2022-11-06T07:21:58.344Z,2.90
2022-11-06T07:24:28.415Z,3.30
2022-11-06T07:26:58.338Z,3.20
2022-11-06T07:29:28.329Z,3.58
2022-11-06T07:31:58.316Z,2.65
2022-11-06T07:34:28.289Z,2.80
2022-11-06T07:36:58.305Z,2.85
2022-11-06T07:39:28.246Z,3.08
2022-11-06T07:41:58.290Z,3.08
2022-11-06T07:44:36.048Z,2.88
2022-11-06T07:47:06.069Z,2.92
2022-11-06T07:49:35.976Z,2.58
2022-11-06T07:52:07.244Z,2.80
2022-11-06T07:54:37.253Z,2.78
2022-11-06T07:57:07.168Z,2.80
2022-11-06T07:59:37.168Z,2.63
2022-11-06T08:02:07.138Z,3.00
2022-11-06T08:04:37.136Z,2.90
2022-11-06T08:07:07.255Z,2.55
2022-11-06T08:09:37.288Z,2.85
2022-11-06T08:12:07.477Z,2.60
2022-11-06T08:14:41.208Z,2.60
2022-11-06T08:17:11.574Z,2.40
2022-11-06T08:19:41.524Z,2.60
2022-11-06T08:22:11.943Z,2.30
2022-11-06T08:24:41.871Z,2.80
2022-11-06T08:27:11.785Z,2.60
2022-11-06T08:29:41.971Z,3.08
2022-11-06T08:32:11.907Z,2.65
2022-11-06T08:34:43.378Z,2.83
2022-11-06T08:37:13.437Z,3.20
2022-11-06T08:39:43.574Z,2.78
2022-11-06T08:42:13.816Z,2.70
2022-11-06T08:44:43.822Z,2.78
2022-11-06T08:47:13.681Z,2.72
2022-11-06T08:49:43.635Z,2.97
2022-11-06T08:52:13.677Z,2.88
2022-11-06T08:54:43.659Z,2.67
2022-11-06T08:57:13.548Z,2.95
2022-11-06T08:59:43.599Z,3.00
2022-11-06T09:02:14.802Z,2.80
2022-11-06T09:04:44.921Z,3.10
2022-11-06T09:07:15.015Z,2.90
2022-11-06T09:09:45.764Z,2.90
2022-11-06T09:12:15.840Z,2.95
2022-11-06T09:14:46.329Z,3.67
2022-11-06T09:17:17.132Z,3.30
2022-11-06T09:19:47.985Z,2.75
2022-11-06T09:22:17.989Z,3.05
2022-11-06T09:25:03.056Z,3.05
2022-11-06T09:27:34.401Z,3.00
2022-11-06T09:30:05.281Z,2.72
2022-11-06T09:32:36.030Z,2.90
2022-11-06T09:35:06.481Z,2.97
2022-11-06T09:37:36.412Z,2.72
2022-11-06T09:40:06.860Z,3.15
2022-11-06T09:42:36.925Z,3.00
2022-11-06T09:45:26.481Z,2.50
2022-11-06T09:48:08.224Z,2.58
2022-11-06T09:50:44.548Z,2.80
2022-11-06T09:53:22.444Z,2.38
2022-11-06T09:55:52.686Z,2.70
2022-11-06T09:58:28.395Z,3.25
2022-11-06T10:01:22.026Z,3.83
2022-11-06T10:04:04.091Z,3.63
2022-11-06T10:06:34.134Z,3.20
2022-11-06T10:09:05.154Z,3.60
2022-11-06T10:12:00.459Z,3.20
2022-11-06T10:14:49.184Z,3.40
2022-11-06T10:17:26.249Z,3.20
2022-11-06T10:20:06.445Z,3.40
2022-11-06T10:22:42.142Z,3.03
2022-11-06T10:25:23.273Z,3.72
2022-11-06T10:28:05.495Z,3.72
2022-11-06T10:31:02.338Z,5.10
2022-11-06T10:33:37.175Z,5.10
2022-11-06T10:36:48.713Z,5.90
2022-11-06T10:39:25.094Z,5.00
2022-11-06T10:42:00.739Z,4.15
2022-11-06T10:44:34.567Z,4.38
2022-11-06T10:47:08.547Z,4.22
2022-11-06T10:49:54.901Z,4.32
2022-11-06T10:52:56.537Z,4.47
2022-11-06T10:55:56.245Z,4.55
2022-11-06T10:58:30.381Z,3.90
2022-11-06T11:01:04.598Z,4.30
2022-11-06T11:03:47.241Z,4.30
2022-11-06T11:06:17.197Z,4.32
2022-11-06T11:08:48.523Z,3.78
2022-11-06T11:11:25.704Z,3.97
2022-11-06T11:13:58.719Z,4.43
2022-11-06T11:16:33.753Z,3.92
2022-11-06T11:19:38.531Z,4.32
2022-11-06T11:22:20.799Z,3.95
2022-11-06T11:25:07.296Z,4.40
2022-11-06T11:27:54.923Z,4.00
2022-11-06T11:30:31.641Z,3.85
2022-11-06T11:33:01.572Z,4.13
2022-11-06T11:35:32.083Z,4.32
2022-11-06T11:38:22.653Z,3.75
2022-11-06T11:40:52.915Z,4.03
2022-11-06T11:43:23.185Z,4.10
2022-11-06T11:46:11.416Z,4.10
2022-11-06T11:48:50.509Z,3.75
2022-11-06T11:51:38.750Z,4.22
2022-11-06T11:54:14.863Z,4.22
2022-11-06T11:57:07.684Z,4.05
2022-11-06T11:59:37.821Z,3.75
2022-11-06T12:02:44.514Z,2.92
2022-11-06T12:05:35.267Z,3.20
2022-11-06T12:08:06.022Z,3.05
2022-11-06T12:10:41.127Z,2.90
2022-11-06T12:13:22.086Z,3.10
2022-11-06T12:16:05.866Z,3.35
2022-11-06T12:18:40.457Z,3.35
2022-11-06T12:21:16.559Z,3.15
2022-11-06T12:24:09.057Z,3.33
2022-11-06T12:27:00.927Z,3.03
2022-11-06T12:29:36.582Z,3.15
2022-11-06T12:32:44.898Z,2.80
2022-11-06T12:35:15.890Z,2.90
2022-11-06T12:38:04.212Z,3.00
2022-11-06T12:40:42.492Z,2.85
2022-11-06T12:43:20.532Z,2.92
2022-11-06T12:46:09.079Z,3.33
2022-11-06T12:49:12.647Z,3.08
2022-11-06T12:51:42.557Z,2.70
2022-11-06T12:54:15.419Z,2.72
2022-11-06T12:57:08.918Z,3.20
2022-11-06T13:00:03.045Z,3.00
2022-11-06T13:02:52.071Z,2.90
2022-11-06T13:05:39.379Z,2.70
2022-11-06T13:08:20.645Z,2.75
2022-11-06T13:11:24.325Z,3.15
2022-11-06T13:13:54.718Z,2.58
2022-11-06T13:16:34.331Z,3.17
2022-11-06T13:19:17.509Z,3.13
2022-11-06T13:21:54.123Z,3.20
2022-11-06T13:24:39.307Z,3.15
2022-11-06T13:27:30.454Z,3.03
2022-11-06T13:30:07.452Z,3.10
2022-11-06T13:32:38.999Z,3.05
2022-11-06T13:35:13.851Z,3.05
2022-11-06T13:37:46.279Z,3.00
2022-11-06T13:40:24.267Z,3.28
2022-11-06T13:43:29.704Z,2.80
2022-11-06T13:46:08.772Z,3.25
2022-11-06T13:49:02.774Z,3.08
2022-11-06T13:54:23.923Z,3.00
2022-11-06T13:57:30.708Z,3.20
2022-11-06T14:00:17.589Z,3.70
2022-11-06T14:03:15.145Z,3.47
2022-11-06T14:06:04.407Z,3.33
2022-11-06T14:08:49.404Z,3.35
2022-11-06T14:11:30.373Z,4.05
2022-11-06T14:14:18.009Z,4.00
2022-11-06T14:16:51.786Z,4.18
2022-11-06T14:19:28.182Z,3.95
2022-11-06T14:22:33.728Z,4.00
2022-11-06T14:25:30.630Z,4.30
2022-11-06T14:28:00.683Z,4.40
2022-11-06T14:31:05.681Z,4.10
2022-11-06T14:33:43.075Z,4.63
2022-11-06T14:36:26.071Z,4.45
2022-11-06T14:38:56.561Z,5.10
2022-11-06T14:41:40.766Z,4.57
2022-11-06T14:44:25.820Z,4.80
2022-11-06T14:47:03.629Z,4.78
2022-11-06T14:50:00.648Z,4.75
2022-11-06T14:52:30.561Z,4.72
2022-11-06T14:55:06.359Z,4.95
2022-11-06T14:57:56.632Z,4.25
2022-11-06T15:00:40.756Z,4.75
2022-11-06T15:03:20.263Z,4.45
2022-11-06T15:05:52.750Z,5.00
2022-11-06T15:08:48.001Z,5.38
2022-11-06T15:11:30.714Z,5.10
2022-11-06T15:14:08.857Z,5.07
2022-11-06T15:16:44.643Z,4.97
2022-11-06T15:19:17.972Z,4.35
2022-11-06T15:21:58.688Z,5.22
2022-11-06T15:24:56.145Z,4.95
2022-11-06T15:27:29.003Z,5.78
2022-11-06T15:30:00.229Z,5.93
2022-11-06T15:32:35.087Z,5.47
2022-11-06T15:35:31.575Z,4.80
2022-11-06T15:38:19.385Z,4.93
2022-11-06T15:40:49.391Z,5.13
2022-11-06T15:43:34.789Z,4.90
2022-11-06T15:46:30.848Z,5.40
2022-11-06T15:49:33.192Z,4.93
2022-11-06T15:52:04.163Z,4.38
2022-11-06T15:54:40.824Z,5.38
2022-11-06T15:57:20.904Z,5.07
2022-11-06T15:59:50.958Z,5.22
2022-11-06T16:02:23.726Z,5.32
2022-11-06T16:04:53.720Z,5.38
2022-11-06T16:07:24.379Z,6.00
2022-11-06T16:09:54.336Z,5.57
2022-11-06T16:12:24.368Z,5.43
2022-11-06T16:14:54.444Z,5.43
2022-11-06T16:17:28.197Z,6.20
2022-11-06T16:20:00.285Z,5.20
2022-11-06T16:22:35.359Z,5.88
2022-11-06T16:25:06.885Z,6.10
2022-11-06T16:27:37.702Z,6.43
2022-11-06T16:30:08.351Z,5.93
2022-11-06T16:32:42.161Z,6.18
2022-11-06T16:35:55.295Z,5.78
2022-11-06T16:38:42.394Z,5.80
2022-11-06T16:41:34.171Z,6.20
2022-11-06T16:44:30.837Z,6.30
2022-11-06T16:47:14.940Z,6.00
2022-11-06T16:49:53.166Z,6.70
2022-11-06T16:52:33.070Z,5.90
2022-11-06T16:55:16.999Z,6.88
2022-11-06T16:57:52.356Z,6.50
2022-11-06T17:00:22.407Z,6.10
2022-11-06T17:03:07.575Z,7.00
2022-11-06T17:05:39.338Z,7.00
2022-11-06T17:08:19.501Z,7.65
2022-11-06T17:10:59.617Z,7.25
2022-11-06T17:13:38.295Z,7.22
2022-11-06T17:16:13.617Z,7.57
2022-11-06T17:18:43.758Z,7.57
2022-11-06T17:21:22.214Z,7.68
2022-11-06T17:23:53.759Z,7.30
2022-11-06T17:26:33.888Z,7.45
2022-11-06T17:29:04.737Z,7.13
2022-11-06T17:31:35.165Z,7.90
2022-11-06T17:34:06.207Z,8.10
2022-11-06T17:36:36.986Z,7.57
2022-11-06T17:39:08.186Z,7.45
2022-11-06T17:41:38.864Z,8.23
2022-11-06T17:44:13.941Z,7.38
2022-11-06T17:46:46.238Z,7.68
2022-11-06T17:49:18.327Z,8.20
2022-11-06T17:51:59.367Z,7.10
2022-11-06T17:54:33.185Z,7.35
2022-11-06T17:57:05.469Z,6.72
2022-11-06T17:59:36.106Z,7.90
2022-11-06T18:02:08.737Z,7.47
2022-11-06T18:04:39.766Z,7.57
2022-11-06T18:07:10.629Z,7.55
2022-11-06T18:09:40.509Z,7.53
2022-11-06T18:12:11.913Z,6.97
2022-11-06T18:14:41.991Z,7.90
2022-11-06T18:17:15.190Z,7.60
2022-11-06T18:19:45.509Z,7.63
2022-11-06T18:22:15.587Z,7.55
2022-11-06T18:24:45.579Z,7.78
2022-11-06T18:27:15.518Z,8.30
2022-11-06T18:29:46.416Z,7.38
2022-11-06T18:32:16.796Z,7.68
2022-11-06T18:34:46.693Z,7.70
2022-11-06T18:37:17.017Z,7.47
2022-11-06T18:39:46.992Z,7.03
2022-11-06T18:42:17.039Z,7.68
2022-11-06T18:44:47.424Z,6.95
2022-11-06T18:47:17.396Z,7.00
2022-11-06T18:49:47.456Z,7.72
2022-11-06T18:52:32.605Z,6.78
2022-11-06T18:55:08.115Z,6.90
2022-11-06T18:57:39.069Z,7.75
2022-11-06T19:00:10.312Z,7.22
2022-11-06T19:02:41.415Z,7.28
2022-11-06T19:05:11.738Z,6.57
2022-11-06T19:07:45.123Z,6.53
2022-11-06T19:10:18.135Z,7.25
2022-11-06T19:12:51.538Z,6.88
2022-11-06T19:15:22.191Z,7.07
2022-11-06T19:17:55.968Z,6.72
2022-11-06T19:20:29.099Z,6.40
2022-11-06T19:22:59.992Z,7.25
2022-11-06T19:25:30.230Z,7.27
2022-11-06T19:28:00.610Z,6.65
2022-11-06T19:30:31.009Z,6.07
2022-11-06T19:33:01.528Z,6.65
2022-11-06T19:35:31.977Z,7.07
2022-11-06T19:38:03.692Z,6.70
2022-11-06T19:40:34.099Z,6.63
2022-11-06T19:43:05.373Z,6.60
2022-11-06T19:45:36.333Z,6.53
2022-11-06T19:48:07.578Z,6.90
2022-11-06T19:50:58.781Z,6.88
2022-11-06T19:53:28.537Z,6.70
2022-11-06T19:56:00.150Z,5.93
2022-11-06T19:58:30.604Z,6.07
2022-11-06T20:01:01.087Z,6.50
2022-11-06T20:03:31.570Z,5.88
2022-11-06T20:06:07.415Z,6.25
2022-11-06T20:08:39.858Z,6.55
2022-11-06T20:11:13.426Z,6.57
2022-11-06T20:13:44.968Z,6.28
2022-11-06T20:16:17.978Z,5.90
2022-11-06T20:18:58.351Z,6.32
2022-11-06T20:21:31.655Z,5.70
2022-11-06T20:24:01.679Z,5.97
2022-11-06T20:26:32.212Z,5.60
2022-11-06T20:29:02.293Z,6.07
2022-11-06T20:31:32.452Z,5.53
2022-11-06T20:34:02.601Z,5.65
2022-11-06T20:36:33.098Z,5.47
2022-11-06T20:39:03.182Z,5.28
2022-11-06T20:41:33.272Z,5.65
2022-11-06T20:44:03.247Z,5.63
2022-11-06T20:46:33.995Z,5.53
2022-11-06T20:49:04.606Z,5.95
2022-11-06T20:51:48.443Z,5.45
2022-11-06T20:54:24.926Z,5.47
2022-11-06T20:56:55.162Z,5.50
2022-11-06T20:59:25.569Z,5.30
2022-11-06T21:01:57.126Z,4.70
2022-11-06T21:04:27.965Z,5.38
2022-11-06T21:06:58.183Z,4.95
2022-11-06T21:09:28.224Z,5.10
2022-11-06T21:11:58.817Z,4.97
2022-11-06T21:14:29.116Z,5.15
2022-11-06T21:16:59.206Z,5.10
2022-11-06T21:19:29.330Z,4.88
2022-11-06T21:22:00.210Z,5.00
2022-11-06T21:24:30.257Z,5.10
2022-11-06T21:27:00.459Z,4.38
2022-11-06T21:29:30.460Z,5.32
2022-11-06T21:32:00.939Z,4.95
2022-11-06T21:34:30.927Z,5.05
2022-11-06T21:37:02.861Z,4.85
2022-11-06T21:39:36.580Z,4.93
2022-11-06T21:44:37.507Z,4.53
2022-11-06T21:47:07.607Z,4.35
2022-11-06T21:49:38.098Z,4.35
2022-11-06T21:52:29.468Z,4.20
2022-11-06T21:55:18.234Z,4.57
2022-11-06T21:57:48.400Z,4.50
2022-11-06T22:00:18.579Z,4.47
2022-11-06T22:02:48.965Z,4.80
2022-11-06T22:05:19.814Z,4.43
2022-11-06T22:07:49.780Z,3.95
2022-11-06T22:10:19.966Z,4.45
2022-11-06T22:12:50.418Z,3.97
2022-11-06T22:15:20.595Z,4.03
2022-11-06T22:17:50.590Z,4.07
2022-11-06T22:20:21.400Z,4.07
2022-11-06T22:22:51.421Z,4.32
2022-11-06T22:25:21.450Z,4.40
2022-11-06T22:27:51.552Z,4.70
2022-11-06T22:30:21.597Z,4.25
2022-11-06T22:32:51.894Z,4.45
2022-11-06T22:35:21.848Z,4.10
2022-11-06T22:37:51.784Z,4.32
2022-11-06T22:40:21.740Z,3.72
2022-11-06T22:42:51.787Z,4.07
2022-11-06T22:45:22.066Z,4.13
2022-11-06T22:47:52.753Z,3.95
2022-11-06T22:50:22.829Z,3.65
2022-11-06T22:52:53.476Z,3.65
2022-11-06T22:55:23.426Z,4.03
2022-11-06T22:57:53.427Z,3.70
2022-11-06T23:00:24.396Z,3.75
2022-11-06T23:02:55.300Z,3.67
2022-11-06T23:05:25.370Z,3.72
2022-11-06T23:07:55.397Z,3.70
2022-11-06T23:10:31.470Z,3.85
2022-11-06T23:13:02.471Z,3.75
2022-11-06T23:15:33.115Z,3.42
2022-11-06T23:18:06.657Z,4.05
2022-11-06T23:20:36.706Z,3.28
2022-11-06T23:23:07.139Z,3.78
2022-11-06T23:25:37.246Z,3.50
2022-11-06T23:28:07.376Z,3.13
2022-11-06T23:30:37.402Z,3.65
2022-11-06T23:33:07.481Z,3.90
2022-11-06T23:35:37.459Z,3.20
2022-11-06T23:38:09.995Z,3.30
2022-11-06T23:40:39.939Z,3.40
2022-11-06T23:43:10.405Z,3.65
2022-11-06T23:45:52.731Z,3.88
2022-11-06T23:48:22.998Z,3.35
2022-11-06T23:50:53.023Z,3.60
2022-11-06T23:53:22.955Z,3.25
2022-11-06T23:55:53.039Z,3.38
2022-11-06T23:58:23.047Z,3.55
